createdAt,value
2017-07-18T00:01:08.584Z,3.60
2017-07-18T00:03:36.133Z,3.37
2017-07-18T00:06:03.710Z,3.40
2017-07-18T00:08:31.346Z,3.63
2017-07-18T00:10:58.915Z,3.83
2017-07-18T00:13:26.507Z,3.67
2017-07-18T00:15:54.858Z,3.60
2017-07-18T00:18:22.440Z,3.57
2017-07-18T00:20:50.006Z,3.70
2017-07-18T00:23:18.337Z,3.43
2017-07-18T00:25:45.894Z,3.70
2017-07-18T00:28:13.475Z,4.27
2017-07-18T00:30:41.055Z,3.60
2017-07-18T00:33:08.621Z,3.90
2017-07-18T00:35:36.218Z,3.77
2017-07-18T00:38:03.790Z,4.00
2017-07-18T00:40:31.375Z,4.10
2017-07-18T00:42:58.986Z,4.10
2017-07-18T00:45:26.574Z,4.40
2017-07-18T00:47:54.144Z,4.40
2017-07-18T00:50:21.754Z,4.10
2017-07-18T00:52:49.334Z,4.70
2017-07-18T00:55:17.660Z,4.07
2017-07-18T00:57:45.209Z,4.20
2017-07-18T01:00:12.778Z,4.40
2017-07-18T01:02:40.342Z,4.90
2017-07-18T01:05:07.927Z,4.67
2017-07-18T01:07:35.530Z,4.33
2017-07-18T01:10:03.103Z,4.03
2017-07-18T01:12:30.691Z,4.43
2017-07-18T01:14:58.253Z,5.00
2017-07-18T01:17:25.818Z,3.90
2017-07-18T01:19:53.411Z,4.27
2017-07-18T01:22:21.810Z,5.00
2017-07-18T01:24:49.391Z,4.50
2017-07-18T01:27:16.980Z,5.03
2017-07-18T01:29:44.545Z,5.73
2017-07-18T01:32:12.128Z,4.87
2017-07-18T01:34:40.482Z,5.33
2017-07-18T01:37:08.066Z,4.83
2017-07-18T01:39:36.395Z,4.77
2017-07-18T01:42:03.978Z,4.63
2017-07-18T01:44:31.571Z,5.10
2017-07-18T01:46:59.895Z,5.60
2017-07-18T01:49:27.455Z,5.53
2017-07-18T01:51:55.027Z,5.60
2017-07-18T01:54:22.623Z,5.20
2017-07-18T01:56:50.196Z,5.67
2017-07-18T01:59:18.509Z,5.30
2017-07-18T02:01:46.061Z,4.97
2017-07-18T02:04:13.645Z,5.90
2017-07-18T02:06:41.203Z,5.57
2017-07-18T02:09:08.761Z,6.53
2017-07-18T02:11:36.360Z,5.80
2017-07-18T02:14:03.928Z,5.90
2017-07-18T02:16:31.759Z,5.80
2017-07-18T02:18:59.324Z,6.17
2017-07-18T02:21:26.882Z,6.50
2017-07-18T02:23:54.481Z,6.37
2017-07-18T02:26:22.806Z,6.70
2017-07-18T02:28:50.365Z,6.50
2017-07-18T02:31:17.942Z,6.20
2017-07-18T02:33:45.529Z,6.97
2017-07-18T02:36:13.100Z,7.47
2017-07-18T02:38:40.709Z,6.77
2017-07-18T02:41:08.311Z,6.77
2017-07-18T02:43:35.879Z,7.20
2017-07-18T02:46:03.448Z,6.70
2017-07-18T02:48:31.795Z,7.00
2017-07-18T02:50:59.439Z,7.17
2017-07-18T02:53:27.003Z,7.43
2017-07-18T02:55:54.582Z,6.77
2017-07-18T02:58:23.307Z,6.50
2017-07-18T03:00:51.645Z,5.90
2017-07-18T03:03:19.226Z,5.97
2017-07-18T03:05:46.935Z,7.20
2017-07-18T03:08:14.518Z,6.87
2017-07-18T03:10:42.270Z,6.80
2017-07-18T03:13:09.894Z,6.30
2017-07-18T03:15:38.223Z,6.30
2017-07-18T03:18:05.782Z,6.10
2017-07-18T03:20:33.486Z,6.87
2017-07-18T03:23:01.049Z,6.70
2017-07-18T03:25:28.609Z,6.50
2017-07-18T03:27:56.973Z,6.27
2017-07-18T03:30:24.538Z,6.90
2017-07-18T03:32:52.099Z,6.73
2017-07-18T03:35:19.692Z,6.47
2017-07-18T03:37:47.268Z,5.93
2017-07-18T03:40:14.824Z,6.70
2017-07-18T03:42:42.392Z,6.57
2017-07-18T03:45:10.005Z,6.73
2017-07-18T03:47:37.556Z,7.03
2017-07-18T03:50:05.134Z,7.33
2017-07-18T03:52:32.706Z,7.40
2017-07-18T03:55:00.283Z,7.00
2017-07-18T03:57:27.931Z,6.80
2017-07-18T03:59:56.262Z,7.90
2017-07-18T04:02:23.850Z,6.20
2017-07-18T04:04:51.415Z,5.97
2017-07-18T04:07:18.978Z,7.60
2017-07-18T04:09:46.556Z,6.57
2017-07-18T04:12:14.112Z,7.13
2017-07-18T04:14:42.434Z,8.40
2017-07-18T04:17:10.119Z,5.87
2017-07-18T04:19:37.685Z,6.20
2017-07-18T04:22:05.247Z,5.30
2017-07-18T04:24:32.837Z,5.37
2017-07-18T04:27:01.155Z,7.00
2017-07-18T04:29:28.717Z,6.07
2017-07-18T04:31:56.305Z,5.50
2017-07-18T04:34:23.966Z,5.33
2017-07-18T04:36:51.626Z,5.93
2017-07-18T04:39:19.214Z,5.37
2017-07-18T04:41:46.790Z,5.13
2017-07-18T04:44:14.364Z,5.60
2017-07-18T04:46:41.932Z,4.93
2017-07-18T04:49:09.516Z,4.67
2017-07-18T04:51:37.088Z,5.00
2017-07-18T04:54:04.657Z,5.40
2017-07-18T04:56:32.328Z,4.93
2017-07-18T04:58:59.897Z,5.07
2017-07-18T05:01:27.451Z,4.83
2017-07-18T05:03:55.102Z,5.43
2017-07-18T05:06:22.671Z,6.63
2017-07-18T05:08:50.243Z,6.40
2017-07-18T05:11:17.830Z,7.23
2017-07-18T05:13:46.145Z,6.77
2017-07-18T05:16:13.759Z,7.97
2017-07-18T05:18:42.103Z,7.80
2017-07-18T05:21:09.661Z,7.60
2017-07-18T05:23:37.265Z,8.27
2017-07-18T05:26:04.858Z,8.90
2017-07-18T05:28:33.135Z,8.43
2017-07-18T05:31:00.693Z,8.17
2017-07-18T05:33:28.290Z,7.77
2017-07-18T05:35:55.845Z,7.00
2017-07-18T05:38:23.445Z,7.00
2017-07-18T05:40:51.769Z,7.13
2017-07-18T05:43:19.431Z,6.70
2017-07-18T05:45:47.006Z,7.17
2017-07-18T05:48:14.593Z,6.20
2017-07-18T05:50:42.159Z,6.27
2017-07-18T05:53:09.738Z,6.20
2017-07-18T05:55:38.058Z,6.50
2017-07-18T05:58:05.618Z,6.10
2017-07-18T06:00:33.350Z,6.23
2017-07-18T06:03:00.951Z,6.10
2017-07-18T06:05:28.505Z,6.20
2017-07-18T06:07:56.112Z,5.47
2017-07-18T06:10:23.682Z,6.10
2017-07-18T06:12:52.003Z,6.43
2017-07-18T06:15:19.583Z,6.00
2017-07-18T06:17:47.271Z,6.50
2017-07-18T06:20:14.830Z,6.50
2017-07-18T06:22:42.398Z,7.10
2017-07-18T06:25:10.747Z,6.00
2017-07-18T06:27:38.297Z,6.47
2017-07-18T06:30:05.888Z,6.47
2017-07-18T06:32:33.468Z,6.10
2017-07-18T06:35:01.827Z,6.10
2017-07-18T06:37:29.399Z,5.80
2017-07-18T06:39:57.731Z,6.00
2017-07-18T06:42:25.302Z,5.60
2017-07-18T06:44:53.694Z,5.80
2017-07-18T06:47:21.270Z,5.63
2017-07-18T06:49:48.845Z,4.87
2017-07-18T06:52:17.167Z,5.10
2017-07-18T06:54:44.773Z,5.00
2017-07-18T06:57:12.330Z,5.30
2017-07-18T06:59:39.899Z,5.00
2017-07-18T07:02:07.470Z,5.03
2017-07-18T07:04:36.410Z,4.57
2017-07-18T07:07:04.268Z,4.30
2017-07-18T07:09:31.829Z,4.60
2017-07-18T07:11:59.402Z,4.53
2017-07-18T07:14:27.006Z,4.40
2017-07-18T07:16:55.431Z,4.83
2017-07-18T07:19:23.019Z,4.33
2017-07-18T07:21:50.678Z,4.47
2017-07-18T07:24:18.254Z,3.80
2017-07-18T07:26:45.826Z,4.10
2017-07-18T07:29:13.378Z,4.57
2017-07-18T07:31:40.961Z,4.97
2017-07-18T07:34:08.538Z,4.70
2017-07-18T07:36:36.141Z,3.63
2017-07-18T07:39:03.691Z,4.20
2017-07-18T07:41:31.250Z,5.07
2017-07-18T07:43:58.864Z,4.33
2017-07-18T07:46:27.183Z,4.80
2017-07-18T07:48:54.898Z,4.60
2017-07-18T07:51:22.474Z,4.43
2017-07-18T07:53:50.047Z,5.10
2017-07-18T07:56:17.655Z,4.83
2017-07-18T07:58:45.217Z,4.70
2017-07-18T08:01:12.814Z,4.80
2017-07-18T08:03:41.157Z,4.37
2017-07-18T08:06:08.746Z,4.40
2017-07-18T08:08:36.290Z,4.23
2017-07-18T08:11:03.864Z,4.67
2017-07-18T08:13:31.811Z,4.20
2017-07-18T08:15:59.397Z,4.17
2017-07-18T08:18:26.954Z,4.10
2017-07-18T08:20:54.706Z,3.80
2017-07-18T08:23:22.265Z,4.00
2017-07-18T08:25:49.822Z,4.20
2017-07-18T08:28:18.377Z,4.13
2017-07-18T08:30:45.941Z,4.23
2017-07-18T08:33:13.489Z,4.40
2017-07-18T08:35:41.202Z,4.40
2017-07-18T08:38:08.758Z,3.90
2017-07-18T08:40:36.403Z,4.13
2017-07-18T08:43:03.957Z,4.50
2017-07-18T08:45:31.550Z,4.47
2017-07-18T08:47:59.115Z,3.80
2017-07-18T08:50:26.691Z,4.03
2017-07-18T08:52:54.300Z,3.73
2017-07-18T08:55:21.850Z,4.10
2017-07-18T08:57:49.445Z,4.50
2017-07-18T09:00:17.967Z,3.63
2017-07-18T09:02:45.524Z,3.60
2017-07-18T09:05:13.098Z,4.10
2017-07-18T09:07:40.645Z,3.57
2017-07-18T09:10:08.205Z,4.13
2017-07-18T09:12:35.862Z,4.13
2017-07-18T09:15:03.431Z,3.27
2017-07-18T09:17:30.981Z,3.47
2017-07-18T09:19:58.574Z,3.43
2017-07-18T09:22:26.135Z,3.63
2017-07-18T09:24:53.741Z,3.03
2017-07-18T09:27:21.301Z,3.00
2017-07-18T09:29:48.859Z,3.50
2017-07-18T09:32:16.458Z,3.47
2017-07-18T09:34:44.790Z,3.30
2017-07-18T09:37:12.346Z,3.00
2017-07-18T09:39:39.943Z,3.33
2017-07-18T09:42:08.278Z,3.00
2017-07-18T09:44:35.832Z,2.80
2017-07-18T09:47:03.407Z,3.50
2017-07-18T09:49:30.971Z,3.47
2017-07-18T09:51:58.558Z,2.83
2017-07-18T09:54:26.121Z,3.50
2017-07-18T09:56:53.659Z,3.30
2017-07-18T09:59:22.088Z,3.23
2017-07-18T10:01:50.594Z,2.77
2017-07-18T10:04:18.157Z,3.60
2017-07-18T10:06:45.741Z,2.63
2017-07-18T10:09:13.736Z,3.30
2017-07-18T10:11:41.742Z,3.30
2017-07-18T10:14:09.319Z,3.63
2017-07-18T10:16:36.878Z,3.67
2017-07-18T10:19:04.485Z,4.00
2017-07-18T10:21:32.043Z,3.97
2017-07-18T10:23:59.615Z,3.40
2017-07-18T10:26:27.958Z,3.63
2017-07-18T10:28:55.541Z,3.67
2017-07-18T10:31:23.106Z,3.40
2017-07-18T10:33:50.676Z,3.60
2017-07-18T10:36:18.238Z,3.40
2017-07-18T10:38:45.795Z,2.83
2017-07-18T10:41:13.367Z,3.10
2017-07-18T10:43:41.736Z,3.80
2017-07-18T10:46:09.307Z,3.77
2017-07-18T10:48:37.643Z,3.27
2017-07-18T10:51:05.230Z,3.50
2017-07-18T10:53:32.810Z,3.83
2017-07-18T10:56:02.658Z,3.53
2017-07-18T10:58:30.234Z,3.30
2017-07-18T11:00:57.821Z,4.00
2017-07-18T11:03:26.049Z,3.73
2017-07-18T11:05:53.619Z,3.70
2017-07-18T11:08:21.209Z,3.50
2017-07-18T11:10:48.865Z,3.53
2017-07-18T11:13:16.443Z,3.03
2017-07-18T11:15:44.043Z,3.77
2017-07-18T11:18:11.862Z,3.27
2017-07-18T11:20:39.458Z,3.50
2017-07-18T11:23:07.795Z,3.13
2017-07-18T11:25:35.344Z,3.30
2017-07-18T11:28:02.942Z,3.90
2017-07-18T11:30:31.225Z,3.17
2017-07-18T11:32:59.586Z,2.90
2017-07-18T11:35:27.287Z,3.80
2017-07-18T11:37:55.910Z,2.80
2017-07-18T11:40:23.538Z,3.20
2017-07-18T11:42:51.106Z,3.10
2017-07-18T11:45:18.691Z,3.10
2017-07-18T11:47:46.277Z,3.37
2017-07-18T11:50:13.835Z,3.30
2017-07-18T11:52:41.394Z,3.20
2017-07-18T11:55:08.979Z,3.57
2017-07-18T11:57:40.686Z,3.40
2017-07-18T12:00:08.307Z,3.13
2017-07-18T12:02:36.694Z,3.70
2017-07-18T12:05:05.030Z,2.73
2017-07-18T12:07:32.793Z,3.40
2017-07-18T12:10:01.252Z,3.20
2017-07-18T12:12:28.848Z,2.90
2017-07-18T12:14:56.450Z,2.70
2017-07-18T12:17:24.758Z,3.23
2017-07-18T12:19:52.349Z,3.27
2017-07-18T12:22:19.912Z,3.10
2017-07-18T12:24:47.493Z,3.30
2017-07-18T12:27:15.834Z,3.63
2017-07-18T12:29:43.402Z,3.43
2017-07-18T12:32:11.622Z,3.83
2017-07-18T12:34:39.981Z,3.40
2017-07-18T12:37:07.528Z,3.10
2017-07-18T12:39:35.094Z,3.20
2017-07-18T12:42:02.758Z,3.07
2017-07-18T12:44:30.322Z,3.40
2017-07-18T12:46:57.882Z,3.23
2017-07-18T12:49:25.471Z,3.80
2017-07-18T12:51:53.866Z,3.00
2017-07-18T12:54:21.459Z,3.20
2017-07-18T12:56:49.050Z,3.40
2017-07-18T12:59:16.651Z,3.53
2017-07-18T13:01:44.254Z,3.17
2017-07-18T13:04:11.821Z,3.30
2017-07-18T13:06:39.390Z,3.20
2017-07-18T13:09:07.615Z,3.17
2017-07-18T13:11:35.173Z,3.53
2017-07-18T13:14:03.126Z,3.80
2017-07-18T13:16:31.487Z,3.30
2017-07-18T13:18:59.046Z,3.20
2017-07-18T13:21:26.606Z,3.27
2017-07-18T13:23:54.269Z,3.30
2017-07-18T13:26:21.826Z,3.50
2017-07-18T13:28:49.407Z,3.13
2017-07-18T13:31:17.743Z,3.77
2017-07-18T13:33:45.340Z,3.33
2017-07-18T13:36:12.891Z,3.13
2017-07-18T13:38:40.478Z,3.30
2017-07-18T13:41:08.807Z,3.30
2017-07-18T13:43:36.447Z,3.60
2017-07-18T13:46:04.633Z,3.60
2017-07-18T13:48:32.182Z,2.87
2017-07-18T13:50:59.758Z,3.47
2017-07-18T13:53:27.346Z,3.20
2017-07-18T13:55:54.933Z,3.70
2017-07-18T13:58:22.505Z,3.10
2017-07-18T14:00:50.073Z,3.60
2017-07-18T14:03:17.761Z,3.50
2017-07-18T14:05:45.410Z,3.47
2017-07-18T14:08:12.985Z,3.73
2017-07-18T14:10:41.481Z,3.57
2017-07-18T14:13:09.042Z,3.50
2017-07-18T14:15:37.565Z,3.37
2017-07-18T14:18:05.906Z,3.23
2017-07-18T14:20:33.474Z,3.13
2017-07-18T14:23:01.064Z,3.03
2017-07-18T14:25:29.441Z,3.83
2017-07-18T14:27:57.821Z,3.90
2017-07-18T14:30:26.202Z,3.27
2017-07-18T14:32:54.524Z,3.20
2017-07-18T14:35:22.091Z,3.27
2017-07-18T14:37:49.688Z,3.10
2017-07-18T14:40:18.065Z,4.00
2017-07-18T14:42:45.644Z,3.30
2017-07-18T14:45:14.001Z,3.20
2017-07-18T14:47:41.601Z,3.30
2017-07-18T14:50:09.199Z,3.73
2017-07-18T14:52:36.755Z,3.27
2017-07-18T14:55:04.348Z,3.80
2017-07-18T14:57:31.901Z,3.67
2017-07-18T14:59:59.502Z,3.30
2017-07-18T15:02:27.064Z,3.40
2017-07-18T15:04:55.001Z,3.17
2017-07-18T15:07:23.127Z,3.47
2017-07-18T15:09:50.677Z,3.20
2017-07-18T15:12:18.261Z,3.40
2017-07-18T15:14:45.852Z,3.00
2017-07-18T15:17:13.431Z,3.63
2017-07-18T15:19:41.766Z,4.13
2017-07-18T15:22:09.338Z,3.30
2017-07-18T15:24:36.955Z,3.20
2017-07-18T15:27:05.298Z,3.37
2017-07-18T15:29:32.886Z,3.17
2017-07-18T15:32:01.214Z,3.50
2017-07-18T15:34:28.793Z,3.50
2017-07-18T15:36:56.437Z,3.57
2017-07-18T15:39:24.037Z,3.53
2017-07-18T15:41:52.376Z,3.80
2017-07-18T15:44:19.956Z,3.30
2017-07-18T15:46:47.548Z,3.40
2017-07-18T15:49:15.899Z,3.87
2017-07-18T15:51:44.197Z,3.67
2017-07-18T15:54:11.781Z,3.57
2017-07-18T15:56:40.325Z,3.40
2017-07-18T15:59:07.896Z,3.70
2017-07-18T16:01:35.503Z,3.23
2017-07-18T16:04:03.059Z,4.00
2017-07-18T16:06:30.654Z,3.40
2017-07-18T16:08:58.257Z,3.43
2017-07-18T16:11:26.583Z,3.37
2017-07-18T16:13:54.157Z,3.40
2017-07-18T16:16:22.346Z,3.80
2017-07-18T16:18:49.905Z,2.93
2017-07-18T16:21:17.490Z,3.20
2017-07-18T16:23:46.613Z,3.27
2017-07-18T16:26:14.190Z,3.23
2017-07-18T16:28:41.770Z,3.83
2017-07-18T16:31:09.367Z,3.87
2017-07-18T16:33:37.688Z,3.43
2017-07-18T16:36:05.265Z,3.57
2017-07-18T16:38:32.895Z,3.80
2017-07-18T16:41:00.501Z,4.33
2017-07-18T16:43:28.089Z,3.23
2017-07-18T16:45:55.674Z,3.07
2017-07-18T16:48:24.163Z,3.50
2017-07-18T16:50:52.518Z,3.50
2017-07-18T16:53:20.969Z,3.70
2017-07-18T16:55:48.548Z,3.20
2017-07-18T16:58:16.157Z,3.47
2017-07-18T17:00:43.734Z,3.10
2017-07-18T17:03:11.333Z,3.47
2017-07-18T17:05:39.762Z,3.47
2017-07-18T17:08:07.354Z,3.80
2017-07-18T17:10:35.494Z,3.27
2017-07-18T17:13:03.166Z,3.80
2017-07-18T17:15:30.753Z,3.70
2017-07-18T17:17:58.308Z,3.33
2017-07-18T17:20:26.122Z,3.40
2017-07-18T17:22:53.718Z,3.67
2017-07-18T17:25:21.289Z,3.37
2017-07-18T17:27:48.852Z,3.60
2017-07-18T17:30:16.467Z,3.23
2017-07-18T17:32:44.793Z,3.53
2017-07-18T17:35:12.375Z,3.70
2017-07-18T17:37:40.826Z,3.57
2017-07-18T17:40:08.393Z,3.73
2017-07-18T17:42:36.004Z,3.70
2017-07-18T17:45:03.600Z,3.53
2017-07-18T17:47:31.165Z,3.50
2017-07-18T17:49:58.770Z,3.73
2017-07-18T17:52:26.362Z,3.33
2017-07-18T17:54:53.947Z,3.70
2017-07-18T17:57:21.572Z,3.80
2017-07-18T17:59:49.905Z,3.50
2017-07-18T18:02:17.477Z,3.80
2017-07-18T18:04:45.096Z,3.63
2017-07-18T18:07:12.651Z,3.70
2017-07-18T18:09:40.246Z,4.00
2017-07-18T18:12:07.802Z,3.50
2017-07-18T18:14:35.373Z,3.73
2017-07-18T18:17:02.972Z,3.40
2017-07-18T18:19:31.305Z,3.83
2017-07-18T18:21:58.871Z,3.67
2017-07-18T18:24:26.462Z,3.90
2017-07-18T18:26:54.102Z,3.90
2017-07-18T18:29:21.698Z,3.87
2017-07-18T18:31:49.266Z,4.30
2017-07-18T18:34:17.690Z,3.67
2017-07-18T18:36:45.278Z,3.80
2017-07-18T18:39:12.922Z,3.90
2017-07-18T18:41:40.500Z,3.80
2017-07-18T18:44:08.093Z,4.10
2017-07-18T18:46:36.433Z,4.07
2017-07-18T18:49:04.027Z,4.43
2017-07-18T18:51:32.343Z,4.27
2017-07-18T18:53:59.918Z,4.17
2017-07-18T18:56:27.523Z,3.80
2017-07-18T18:58:55.877Z,4.20
2017-07-18T19:01:23.486Z,3.93
2017-07-18T19:03:51.084Z,3.80
2017-07-18T19:06:18.683Z,3.77
2017-07-18T19:08:46.265Z,4.03
2017-07-18T19:11:13.813Z,4.00
2017-07-18T19:13:42.180Z,3.97
2017-07-18T19:16:09.749Z,4.40
2017-07-18T19:18:37.338Z,4.20
2017-07-18T19:21:04.986Z,4.40
2017-07-18T19:23:33.335Z,4.03
2017-07-18T19:26:00.935Z,4.05
2017-07-18T19:28:28.536Z,4.10
2017-07-18T19:30:56.116Z,4.10
2017-07-18T19:33:23.681Z,3.90
2017-07-18T19:35:51.302Z,3.90
2017-07-18T19:38:18.893Z,4.00
2017-07-18T19:40:46.462Z,4.50
2017-07-18T19:43:14.030Z,4.63
2017-07-18T19:45:41.593Z,4.53
2017-07-18T19:48:09.188Z,4.20
2017-07-18T19:50:36.764Z,4.33
2017-07-18T19:53:04.346Z,4.23
2017-07-18T19:55:31.974Z,5.40
2017-07-18T19:57:59.542Z,4.20
2017-07-18T20:00:27.154Z,5.20
2017-07-18T20:02:54.734Z,4.97
2017-07-18T20:05:23.043Z,5.30
2017-07-18T20:07:50.694Z,5.00
2017-07-18T20:10:18.277Z,4.90
2017-07-18T20:12:45.866Z,4.77
2017-07-18T20:15:13.438Z,5.10
2017-07-18T20:17:41.040Z,4.90
2017-07-18T20:20:08.644Z,4.20
2017-07-18T20:22:36.201Z,5.33
2017-07-18T20:25:03.772Z,6.23
2017-07-18T20:27:31.341Z,5.50
2017-07-18T20:29:58.941Z,6.23
2017-07-18T20:32:27.272Z,6.17
2017-07-18T20:34:54.846Z,6.00
2017-07-18T20:37:22.443Z,5.77
2017-07-18T20:39:50.798Z,6.37
2017-07-18T20:42:18.345Z,5.60
2017-07-18T20:44:45.919Z,5.13
2017-07-18T20:47:13.498Z,5.57
2017-07-18T20:49:42.010Z,5.80
2017-07-18T20:52:09.580Z,5.20
2017-07-18T20:54:37.165Z,5.20
2017-07-18T20:57:04.713Z,5.37
2017-07-18T20:59:32.289Z,5.37
2017-07-18T21:01:59.870Z,5.67
2017-07-18T21:04:27.458Z,5.57
2017-07-18T21:06:55.070Z,5.37
2017-07-18T21:09:22.664Z,5.60
2017-07-18T21:11:50.229Z,5.40
2017-07-18T21:14:18.599Z,5.97
2017-07-18T21:16:46.166Z,5.83
2017-07-18T21:19:13.754Z,5.77
2017-07-18T21:21:41.369Z,6.30
2017-07-18T21:24:08.974Z,5.43
2017-07-18T21:26:36.602Z,5.23
2017-07-18T21:29:04.175Z,5.80
2017-07-18T21:31:31.743Z,6.27
2017-07-18T21:34:00.109Z,5.97
2017-07-18T21:36:27.677Z,6.03
2017-07-18T21:38:55.263Z,5.70
2017-07-18T21:41:22.851Z,5.90
2017-07-18T21:43:50.418Z,5.83
2017-07-18T21:46:17.991Z,6.50
2017-07-18T21:48:45.590Z,5.73
2017-07-18T21:51:13.124Z,5.83
2017-07-18T21:53:40.706Z,6.63
2017-07-18T21:56:09.045Z,6.83
2017-07-18T21:58:36.615Z,5.73
2017-07-18T22:01:04.323Z,5.93
2017-07-18T22:03:31.894Z,6.80
2017-07-18T22:05:59.490Z,6.80
2017-07-18T22:08:27.063Z,6.67
2017-07-18T22:10:54.687Z,7.37
2017-07-18T22:13:22.266Z,7.10
2017-07-18T22:15:49.826Z,7.80
2017-07-18T22:18:17.410Z,7.17
2017-07-18T22:20:44.990Z,7.57
2017-07-18T22:23:12.550Z,8.33
2017-07-18T22:25:40.896Z,7.90
2017-07-18T22:28:08.463Z,8.53
2017-07-18T22:30:36.050Z,8.27
2017-07-18T22:33:03.639Z,7.63
2017-07-18T22:35:31.217Z,7.90
2017-07-18T22:37:58.791Z,7.83
2017-07-18T22:40:26.342Z,7.80
2017-07-18T22:42:53.927Z,8.27
2017-07-18T22:45:21.488Z,8.40
2017-07-18T22:47:49.057Z,8.27
2017-07-18T22:50:16.627Z,8.20
2017-07-18T22:52:44.670Z,8.80
2017-07-18T22:55:13.635Z,8.13
2017-07-18T22:57:41.231Z,9.13
2017-07-18T23:00:08.771Z,9.37
2017-07-18T23:02:36.378Z,9.17
2017-07-18T23:05:04.722Z,9.10
2017-07-18T23:07:32.429Z,9.73
2017-07-18T23:10:00.765Z,9.07
2017-07-18T23:12:28.329Z,10.43
2017-07-18T23:14:55.930Z,8.73
2017-07-18T23:17:23.563Z,10.07
2017-07-18T23:19:51.202Z,9.00
2017-07-18T23:22:18.798Z,9.87
2017-07-18T23:24:46.358Z,10.37
2017-07-18T23:27:13.986Z,9.70
2017-07-18T23:29:41.555Z,9.60
2017-07-18T23:32:09.109Z,10.10
2017-07-18T23:34:36.697Z,10.20
2017-07-18T23:37:04.262Z,10.60
2017-07-18T23:39:31.847Z,10.40
2017-07-18T23:42:00.186Z,11.07
2017-07-18T23:44:27.749Z,11.20
2017-07-18T23:46:55.381Z,10.70
2017-07-18T23:49:22.943Z,11.07
2017-07-18T23:51:50.497Z,11.20
2017-07-18T23:54:18.093Z,11.57
2017-07-18T23:56:45.665Z,11.50
2017-07-18T23:59:14.054Z,11.60
